Aeroporto :
LOGIN :

Iscrizione | Disclaimer

   EN    FR    IT 

 










Sommario :    VFR   VFR Marginale   IFR   IFR Intensivo   IFR Molto Intensivo
Visibilità : 
Base nubi : 
>= 8 km
>= 3000ft
5 / 8 km
1000 / 3000 ft
1500m / 5 km
500 / 1000 ft
800 / 1500m
200 / 500 ft
< 800m
< 200 ft
Simboli :   Temporali  Nebbia  Neve Forte  Precipitazioni Forti  Vento > 20 kt
SIGMETs :   Varie  Temporali  Ghiacco  Turbolenza  Onda orograficha  Ceneri Vulcaniche






- Altitudine del aeroporto : 291 ft
- Codice IATA : ORY


LFPO - Paris-Orly

ULTIMO METAR :
  • 190500Z 33005KT 9999 SCT036 01/M01 Q1036 NOSIG

METARs OBSOLETI :
  • 190430Z 34005KT 9999 FEW033 01/M00 Q1035 NOSIG
  • 190400Z 34006KT 9999 FEW031 01/M01 Q1035 NOSIG
  • 190330Z 34006KT 9999 SCT031 01/M00 Q1035 NOSIG
  • 190300Z 35005KT 9999 SCT031 01/M00 Q1035 NOSIG
  • 190230Z 33004KT 9999 FEW026 01/M00 Q1034 NOSIG

TAF TAF LFPO
Valido dal 19 a 00 ore il 20 a 06 ore UTC


182300Z 1900/2006 36006KT CAVOK
BECMG 1911/1913 SCT020
TEMPO 1912/1916 01012G22KT -SHRA SCT020TCU BKN030
BECMG 1916/1920 CAVOK
BECMG 2002/2005 BKN012
PROB30
TEMPO 2003/2006 3000 BR BKN006
ATIS : +33 1 49 75 65 80



MetMap, La meteo Aeronautica in un colpo d'occhio ! - Copyright ORBIFLY Dicembre 2007 - Disclaimer

ORBIFLY MET'MAP TEAM :

Programmazione e sviluppo : Alexandra Zaïnal
Concezione : Baudouin d'Aumeries
Aiuto per la programmazione : Marc-Olivier Méhu
Supporto tecnico e logistico : Manuel Goepfert
Aiuto per la traduzione : Arnaldo La Scala

Contatto : metmap@orbifly.com




FONTI E CREDITI :

   NOAA